Time;durP1;ratioP1;P1;durP2;ratioP2;P2;SDS_P1;SDS_P2;PMS_P1;PMS_P2;Temp;Humidity;BMP_temperature;BMP_pressure;BME280_temperature;BME280_humidity;BME280_pressure;Samples;Min_cycle;Max_cycle;Signal;HPM_P1;HPM_P2
2022/01/25 00:24:52;;;;;;;;;72.75;57.00;;;;;-147.17;100.00;50471.97;5027412;28;51357;-67
2022/01/25 00:29:56;;;;;;;;;64.25;53.25;;;;;-147.17;100.00;50493.63;5022095;28;51365;-69
2022/01/25 00:32:22;;;;;;;;;74.75;56.50;;;;;-147.17;100.00;50460.16;5023943;28;51065;-69
2022/01/25 00:34:48;;;;;;;;;65.25;54.00;;;;;-147.17;100.00;50473.94;5016026;28;51398;-69
2022/01/25 00:37:14;;;;;;;;;68.50;57.25;;;;;-147.17;100.00;50434.56;5026109;28;51401;-69
2022/01/25 00:39:41;;;;;;;;;77.75;60.50;;;;;-147.17;100.00;50489.69;5018644;28;51999;-69
2022/01/25 00:42:07;;;;;;;;;78.50;58.50;;;;;-147.17;100.00;50456.22;5024864;28;51080;-70
2022/01/25 00:44:37;;;;;;;;;68.25;58.00;;;;;-147.17;100.00;50460.16;5020830;28;51211;-70
2022/01/25 00:47:05;;;;;;;;;71.00;58.00;;;;;-147.17;100.00;50456.22;5030802;28;51078;-72
2022/01/25 00:49:33;;;;;;;;;76.00;59.25;;;;;-147.17;100.00;50466.06;5035737;28;52608;-67
2022/01/25 00:52:05;;;;;;;;;77.25;60.25;;;;;-147.17;100.00;50464.09;5038194;28;51045;-67
2022/01/25 00:54:33;;;;;;;;;75.50;60.25;;;;;-147.17;100.00;50458.19;5036996;28;51196;-70
2022/01/25 00:56:59;;;;;;;;;80.75;62.00;;;;;-147.17;100.00;50464.09;5022703;28;51458;-71
2022/01/25 00:59:31;;;;;;;;;71.50;57.75;;;;;-147.17;100.00;50470.00;5021772;28;52303;-72
2022/01/25 01:02:01;;;;;;;;;76.50;60.50;;;;;-147.17;100.00;50446.38;5024760;28;51190;-70
2022/01/25 01:04:30;;;;;;;;;80.75;61.25;;;;;-147.17;100.00;50479.84;5018913;28;51045;-68
2022/01/25 01:06:56;;;;;;;;;77.75;60.25;;;;;-147.17;100.00;50466.06;5025637;28;51064;-69
2022/01/25 01:09:22;;;;;;;;;76.50;61.75;;;;;-147.17;100.00;50456.22;5026492;28;52896;-68
2022/01/25 01:12:13;;;;;;;;;76.00;60.00;;;;;-147.17;100.00;50450.31;5028262;28;51063;-69
2022/01/25 01:31:17;;;;;;;;;65.50;53.25;;;;;-147.17;100.00;50483.78;5028076;28;51197;-66
2022/01/25 01:43:55;;;;;;;;;60.25;50.00;;;;;-147.17;100.00;50456.22;5019571;28;51027;-69
2022/01/25 01:46:56;;;;;;;;;67.00;51.25;;;;;-147.17;100.00;50470.00;5017112;28;50924;-68
2022/01/25 01:49:07;;;;;;;;;64.75;49.50;;;;;-147.17;100.00;50454.25;5030600;28;51440;-72
2022/01/25 01:51:37;;;;;;;;;66.75;50.75;;;;;-147.17;100.00;50450.31;5019564;28;52665;-69
2022/01/25 01:54:07;;;;;;;;;60.00;47.50;;;;;-147.17;100.00;50438.50;5028635;28;51114;-69
2022/01/25 01:56:32;;;;;;;;;64.25;50.75;;;;;-147.17;100.00;50450.31;5026860;28;51328;-69
2022/01/25 01:59:01;;;;;;;;;58.25;49.75;;;;;-147.17;100.00;50458.19;5020473;28;51315;-64
2022/01/25 02:01:28;;;;;;;;;59.75;45.00;;;;;-147.17;100.00;50473.94;5031827;28;51030;-65
2022/01/25 02:03:55;;;;;;;;;56.00;44.25;;;;;-147.17;100.00;50454.25;5021776;28;51324;-69
2022/01/25 02:06:21;;;;;;;;;58.00;45.75;;;;;-147.17;100.00;50468.03;5020946;28;50991;-73
2022/01/25 02:08:47;;;;;;;;;61.00;48.50;;;;;-147.17;100.00;50473.94;5024979;28;51006;-70
2022/01/25 02:11:13;;;;;;;;;58.50;46.75;;;;;-147.17;100.00;50475.91;5019392;28;51366;-71
2022/01/25 02:13:41;;;;;;;;;61.50;50.75;;;;;-147.17;100.00;50462.13;5027000;28;51191;-77
2022/01/25 02:16:14;;;;;;;;;50.75;44.75;;;;;-147.17;100.00;50450.31;5034367;28;51098;-75
2022/01/25 02:24:07;;;;;;;;;51.50;44.50;;;;;-147.17;100.00;50462.13;5018565;28;51099;-75
2022/01/25 02:26:33;;;;;;;;;61.50;47.25;;;;;-147.17;100.00;50473.94;5030912;28;51497;-75
2022/01/25 02:28:58;;;;;;;;;51.00;43.50;;;;;-147.17;100.00;50470.00;5019733;28;51291;-67
2022/01/25 02:31:24;;;;;;;;;47.25;41.50;;;;;-147.17;100.00;50442.44;5015030;28;51078;-68
2022/01/25 02:33:49;;;;;;;;;54.75;44.25;;;;;-147.17;100.00;50440.47;5017880;28;51148;-66
2022/01/25 02:36:22;;;;;;;;;55.50;46.00;;;;;-147.17;100.00;50466.06;5022848;28;51062;-68
2022/01/25 02:38:48;;;;;;;;;48.00;41.00;;;;;-147.17;100.00;50450.31;5028857;28;51148;-66
2022/01/25 02:41:13;;;;;;;;;53.00;41.50;;;;;-147.17;100.00;50430.63;5014729;28;52760;-68
2022/01/25 02:43:42;;;;;;;;;46.00;42.75;;;;;-147.17;100.00;50466.06;5014695;28;50909;-69
2022/01/25 02:46:23;;;;;;;;;49.50;44.25;;;;;-147.17;100.00;50456.22;5015039;28;51160;-69
2022/01/25 02:48:56;;;;;;;;;49.50;42.50;;;;;-147.17;100.00;50428.66;5028374;28;51038;-75
2022/01/25 02:51:31;;;;;;;;;52.00;44.50;;;;;-147.17;100.00;50454.25;5024079;28;51823;-68
2022/01/25 02:53:57;;;;;;;;;56.75;42.75;;;;;-147.17;100.00;50454.25;5016484;28;51083;-69
2022/01/25 02:56:26;;;;;;;;;50.25;41.50;;;;;-147.17;100.00;50440.47;5027172;28;50958;-68
2022/01/25 02:58:52;;;;;;;;;50.50;44.25;;;;;-147.17;100.00;50450.31;5014550;28;51292;-69
2022/01/25 03:01:18;;;;;;;;;49.75;42.25;;;;;-147.17;100.00;50438.50;5028583;28;51898;-67
2022/01/25 03:03:44;;;;;;;;;48.50;41.50;;;;;-147.17;100.00;50422.75;5034609;28;51143;-65
2022/01/25 03:06:14;;;;;;;;;56.75;44.00;;;;;-147.17;100.00;50454.25;5031123;28;51141;-66
2022/01/25 03:08:39;;;;;;;;;47.00;41.00;;;;;-147.17;100.00;50448.34;5014585;28;51225;-69
2022/01/25 03:11:05;;;;;;;;;43.75;32.25;;;;;-147.17;100.00;50412.91;5014337;28;52068;-69
2022/01/25 03:13:36;;;;;;;;;52.75;43.75;;;;;-147.17;100.00;50430.63;5016644;28;51207;-68
2022/01/25 03:16:06;;;;;;;;;49.25;41.25;;;;;-147.17;100.00;50452.28;5023032;28;51000;-73
2022/01/25 03:21:03;;;;;;;;;47.25;42.75;;;;;-147.17;100.00;50444.41;5024938;28;51176;-68
2022/01/25 03:23:30;;;;;;;;;44.25;38.75;;;;;-147.17;100.00;50412.91;5034426;28;51127;-67
2022/01/25 03:25:56;;;;;;;;;48.00;41.75;;;;;-147.17;100.00;50432.59;5031454;28;51133;-69
2022/01/25 03:28:22;;;;;;;;;47.00;41.25;;;;;-147.17;100.00;50432.59;5036055;28;50980;-69
2022/01/25 03:30:47;;;;;;;;;41.75;38.50;;;;;-147.17;100.00;50426.69;5021789;28;51892;-69
2022/01/25 03:33:14;;;;;;;;;43.50;41.75;;;;;-147.17;100.00;50434.56;5031067;28;51213;-66
2022/01/25 03:35:40;;;;;;;;;50.25;42.25;;;;;-147.17;100.00;50399.13;5036842;28;51033;-66
2022/01/25 03:38:05;;;;;;;;;42.50;38.50;;;;;-147.17;100.00;50420.78;5035849;28;51198;-69
2022/01/25 03:40:32;;;;;;;;;45.00;37.00;;;;;-147.17;100.00;50424.72;5027278;28;51741;-69
2022/01/25 03:42:59;;;;;;;;;47.25;41.25;;;;;-147.17;100.00;50438.50;5030072;28;50342;-70
2022/01/25 03:45:30;;;;;;;;;47.25;40.75;;;;;-147.17;100.00;50426.69;5029916;28;51308;-70
2022/01/25 03:50:26;;;;;;;;;39.25;36.25;;;;;-147.17;100.00;50420.78;5022766;28;51183;-71
2022/01/25 03:52:51;;;;;;;;;48.50;42.50;;;;;-147.17;100.00;50454.25;5024521;28;50543;-71
2022/01/25 03:55:17;;;;;;;;;54.00;45.75;;;;;-147.17;100.00;50442.44;5030553;28;51165;-71
2022/01/25 03:57:42;;;;;;;;;49.25;43.75;;;;;-147.17;100.00;50450.31;5036090;28;51053;-71
2022/01/25 04:00:10;;;;;;;;;55.25;44.00;;;;;-147.17;100.00;50448.34;5033170;28;50947;-71
2022/01/25 04:02:37;;;;;;;;;52.75;40.50;;;;;-147.17;100.00;50414.88;5023444;28;50938;-72
2022/01/25 04:05:03;;;;;;;;;40.50;38.75;;;;;-147.17;100.00;50430.63;5038801;28;51054;-72
2022/01/25 04:07:43;;;;;;;;;45.00;38.00;;;;;-147.17;100.00;50408.97;5021833;28;51501;-70
2022/01/25 04:10:09;;;;;;;;;49.75;43.50;;;;;-147.17;100.00;50405.03;5028064;28;51080;-68
2022/01/25 04:12:34;;;;;;;;;53.75;44.25;;;;;-147.17;100.00;50395.19;5021142;28;51290;-70
2022/01/25 04:15:01;;;;;;;;;40.25;35.00;;;;;-147.17;100.00;50383.38;5016451;28;51940;-70
2022/01/25 04:17:26;;;;;;;;;55.00;44.25;;;;;-147.17;100.00;50416.84;5022196;28;51070;-70
2022/01/25 04:20:13;;;;;;;;;53.75;44.00;;;;;-147.17;100.00;50385.34;5029193;28;51585;-70
2022/01/25 04:25:22;;;;;;;;;47.75;41.25;;;;;-147.17;100.00;50430.63;5022395;28;51089;-70
2022/01/25 04:27:48;;;;;;;;;46.00;41.50;;;;;-147.17;100.00;50414.88;5023377;28;51298;-71
2022/01/25 04:30:13;;;;;;;;;51.25;43.75;;;;;-147.17;100.00;50407.00;5027891;28;50956;-70
2022/01/25 04:49:04;;;;;;;;;46.75;43.50;;;;;-147.17;100.00;50397.16;5017551;28;50990;-70
2022/01/25 04:54:11;;;;;;;;;46.00;40.25;;;;;-147.17;100.00;50420.78;5022371;28;51146;-70
2022/01/25 04:56:49;;;;;;;;;47.50;41.25;;;;;-147.17;100.00;50422.75;5027330;28;51050;-69
2022/01/25 05:02:08;;;;;;;;;60.50;48.75;;;;;-147.17;100.00;50418.81;5022670;28;51594;-70
2022/01/25 05:04:40;;;;;;;;;50.50;43.25;;;;;-147.17;100.00;50418.81;5018798;28;50920;-71
2022/01/25 05:07:25;;;;;;;;;45.50;41.50;;;;;-147.17;100.00;50414.88;5016294;28;51252;-70
2022/01/25 05:09:52;;;;;;;;;56.75;44.00;;;;;-147.17;100.00;50416.84;5013248;28;51146;-70
2022/01/25 05:12:18;;;;;;;;;52.00;45.75;;;;;-147.17;100.00;50412.91;5023269;28;51701;-70
2022/01/25 05:14:58;;;;;;;;;53.00;43.25;;;;;-147.17;100.00;50444.41;5028489;28;51074;-70
2022/01/25 05:17:33;;;;;;;;;52.00;45.00;;;;;-147.17;100.00;50428.66;5018117;28;51046;-70
2022/01/25 05:22:42;;;;;;;;;49.75;42.50;;;;;-147.17;100.00;50428.66;5030200;28;51600;-70
2022/01/25 05:25:08;;;;;;;;;51.25;43.00;;;;;-147.17;100.00;50407.00;5023565;28;51156;-70
2022/01/25 05:27:33;;;;;;;;;34.00;31.50;;;;;-147.17;100.00;50412.91;5029684;28;51065;-72
2022/01/25 05:29:59;;;;;;;;;46.00;42.25;;;;;-147.17;100.00;50412.91;5030236;28;51141;-70
2022/01/25 05:32:24;;;;;;;;;45.50;40.75;;;;;-147.17;100.00;50428.66;5012883;28;50964;-72
2022/01/25 05:34:50;;;;;;;;;40.75;36.50;;;;;-147.17;100.00;50391.25;5012741;28;51149;-70
2022/01/25 05:37:15;;;;;;;;;39.50;37.50;;;;;-147.17;100.00;50422.75;5021328;28;51243;-71
2022/01/25 05:39:40;;;;;;;;;59.50;46.50;;;;;-147.17;100.00;50383.38;5027417;28;51252;-70
2022/01/25 05:47:18;;;;;;;;;45.50;39.75;;;;;-147.17;100.00;50442.44;5012281;28;51217;-70
2022/01/25 05:49:45;;;;;;;;;44.50;41.50;;;;;-147.17;100.00;50442.44;5021191;28;51271;-70
2022/01/25 05:52:11;;;;;;;;;51.00;44.25;;;;;-147.17;100.00;50418.81;5018201;28;51598;-71
2022/01/25 05:54:38;;;;;;;;;53.00;44.50;;;;;-147.17;100.00;50458.19;5022209;28;51382;-70
2022/01/25 05:57:03;;;;;;;;;56.00;45.50;;;;;-147.17;100.00;50440.47;5014466;28;51208;-70
2022/01/25 05:59:29;;;;;;;;;52.25;44.50;;;;;-147.17;100.00;50428.66;5008453;28;51197;-71
2022/01/25 06:01:54;;;;;;;;;50.00;42.75;;;;;-147.17;100.00;50407.00;5027608;28;51891;-71
2022/01/25 06:04:22;;;;;;;;;47.25;42.75;;;;;-147.17;100.00;50442.44;5030060;28;51404;-70
2022/01/25 06:06:47;;;;;;;;;54.25;43.25;;;;;-147.17;100.00;50428.66;5025560;28;51124;-71
2022/01/25 06:09:13;;;;;;;;;47.75;41.75;;;;;-147.17;100.00;50414.88;5019014;28;51302;-70
2022/01/25 06:11:38;;;;;;;;;55.50;44.00;;;;;-147.17;100.00;50426.69;5027704;28;51765;-70
2022/01/25 06:14:04;;;;;;;;;61.00;46.00;;;;;-147.17;100.00;50399.13;5029573;28;51234;-70
2022/01/25 06:16:30;;;;;;;;;49.50;43.50;;;;;-147.17;100.00;50420.78;5028353;28;51161;-70
2022/01/25 06:18:57;;;;;;;;;51.00;44.50;;;;;-147.17;100.00;50426.69;5020223;28;51435;-70
2022/01/25 06:21:22;;;;;;;;;53.25;45.00;;;;;-147.17;100.00;50422.75;5021736;28;52192;-70
2022/01/25 06:23:48;;;;;;;;;56.25;45.75;;;;;-147.17;100.00;50403.06;5021877;28;51046;-70
2022/01/25 06:26:13;;;;;;;;;55.75;46.25;;;;;-147.17;100.00;50444.41;5019103;28;51355;-70
2022/01/25 06:28:39;;;;;;;;;46.50;41.25;;;;;-147.17;100.00;50407.00;5020604;28;51093;-70
2022/01/25 06:31:04;;;;;;;;;48.50;42.00;;;;;-147.17;100.00;50418.81;5025840;28;53678;-70
2022/01/25 06:33:30;;;;;;;;;53.50;44.25;;;;;-147.17;100.00;50422.75;5024467;28;51196;-70
2022/01/25 06:35:56;;;;;;;;;52.00;43.00;;;;;-147.17;100.00;50424.72;5020606;28;51169;-70
2022/01/25 06:38:21;;;;;;;;;52.00;46.25;;;;;-147.17;100.00;50418.81;5030274;28;51225;-69
2022/01/25 06:40:47;;;;;;;;;52.75;44.00;;;;;-147.17;100.00;50422.75;5011205;28;51884;-70
2022/01/25 06:43:12;;;;;;;;;60.75;45.75;;;;;-147.17;100.00;50446.38;5018120;28;51138;-70
2022/01/25 06:45:40;;;;;;;;;51.75;45.00;;;;;-147.17;100.00;50418.81;5028194;28;51371;-69
2022/01/25 06:48:06;;;;;;;;;47.75;42.00;;;;;-147.17;100.00;50395.19;5021998;28;51159;-70
2022/01/25 06:50:33;;;;;;;;;52.25;45.00;;;;;-147.17;100.00;50408.97;5025085;28;51091;-71
2022/01/25 06:52:58;;;;;;;;;48.75;43.50;;;;;-147.17;100.00;50399.13;5026235;28;51200;-70
2022/01/25 06:55:24;;;;;;;;;58.75;44.25;;;;;-147.17;100.00;50422.75;5014594;28;51128;-70
2022/01/25 06:57:49;;;;;;;;;42.75;35.50;;;;;-147.17;100.00;50410.94;5021350;28;51277;-72
2022/01/25 07:00:18;;;;;;;;;58.25;46.50;;;;;-147.17;100.00;50420.78;5020095;28;51804;-74
2022/01/25 07:02:43;;;;;;;;;47.25;40.25;;;;;-147.17;100.00;50403.06;5011522;28;50913;-74
2022/01/25 07:05:09;;;;;;;;;59.00;45.75;;;;;-147.17;100.00;50430.63;5012153;28;51271;-71
2022/01/25 07:07:37;;;;;;;;;58.25;45.00;;;;;-147.17;100.00;50393.22;5023469;28;51210;-73
2022/01/25 07:10:03;;;;;;;;;54.00;45.50;;;;;-147.17;100.00;50405.03;5018486;28;51003;-72
2022/01/25 07:12:28;;;;;;;;;58.00;47.25;;;;;-147.17;100.00;50407.00;5016143;28;51139;-71
2022/01/25 07:14:54;;;;;;;;;58.00;47.50;;;;;-147.17;100.00;50434.56;5024294;28;51019;-72
2022/01/25 07:17:19;;;;;;;;;59.50;45.50;;;;;-147.17;100.00;50403.06;5013061;28;51437;-71
2022/01/25 07:19:45;;;;;;;;;50.25;44.00;;;;;-147.17;100.00;50387.31;5020450;28;51074;-71
2022/01/25 07:22:10;;;;;;;;;53.75;46.25;;;;;-147.17;100.00;50426.69;5023567;28;51442;-71
2022/01/25 07:24:36;;;;;;;;;58.00;49.25;;;;;-147.17;100.00;50428.66;5028791;28;51342;-72
2022/01/25 07:27:02;;;;;;;;;61.50;51.00;;;;;-147.17;100.00;50416.84;5026869;28;51089;-71
2022/01/25 07:29:28;;;;;;;;;63.00;49.00;;;;;-147.17;100.00;50410.94;5020788;28;51192;-72
2022/01/25 07:31:53;;;;;;;;;60.25;48.50;;;;;-147.17;100.00;50414.88;5024835;28;51231;-71
2022/01/25 07:34:19;;;;;;;;;55.75;45.75;;;;;-147.17;100.00;50430.63;5029221;28;51196;-73
2022/01/25 07:36:45;;;;;;;;;56.00;48.00;;;;;-147.17;100.00;50395.19;5020029;28;51364;-71
2022/01/25 07:39:10;;;;;;;;;51.75;45.75;;;;;-147.17;100.00;50412.91;5022105;28;52268;-73
2022/01/25 07:41:37;;;;;;;;;46.75;43.25;;;;;-147.17;100.00;50424.72;5029715;28;51192;-72
2022/01/25 07:44:03;;;;;;;;;63.25;48.75;;;;;-147.17;100.00;50426.69;5025460;28;51074;-73
2022/01/25 07:46:29;;;;;;;;;45.25;36.00;;;;;-147.17;100.00;50428.66;5020510;28;51367;-73
2022/01/25 07:48:56;;;;;;;;;62.25;48.50;;;;;-147.17;100.00;50407.00;5014175;28;52115;-73
2022/01/25 07:51:22;;;;;;;;;57.25;48.00;;;;;-147.17;100.00;50405.03;5015216;28;51261;-72
2022/01/25 07:53:48;;;;;;;;;62.25;51.75;;;;;-147.17;100.00;50426.69;5031356;28;51157;-70
2022/01/25 07:56:14;;;;;;;;;49.50;44.25;;;;;-147.17;100.00;50430.63;5020158;28;51124;-70
2022/01/25 07:58:39;;;;;;;;;61.25;50.25;;;;;-147.17;100.00;50407.00;5021585;28;51134;-75
2022/01/25 08:01:05;;;;;;;;;61.75;51.00;;;;;-147.17;100.00;50438.50;5023910;28;51195;-74
2022/01/25 08:03:31;;;;;;;;;59.75;45.50;;;;;-147.17;100.00;50371.56;5024299;28;51084;-74
2022/01/25 08:05:56;;;;;;;;;61.00;51.00;;;;;-147.17;100.00;50430.63;5017358;28;51321;-73
2022/01/25 08:08:22;;;;;;;;;67.25;55.25;;;;;-147.17;100.00;50422.75;5031160;28;51145;-69
2022/01/25 08:10:47;;;;;;;;;60.50;49.50;;;;;-147.17;100.00;50391.25;5021632;28;51179;-71
2022/01/25 08:13:13;;;;;;;;;55.50;46.50;;;;;-147.17;100.00;50418.81;5019163;28;51094;-71
2022/01/25 08:15:38;;;;;;;;;61.00;47.50;;;;;-147.17;100.00;50408.97;5021216;28;51106;-73
2022/01/25 08:18:04;;;;;;;;;66.00;50.25;;;;;-147.17;100.00;50424.72;5022515;28;51732;-73
2022/01/25 08:20:29;;;;;;;;;61.50;49.25;;;;;-147.17;100.00;50446.38;5021491;28;51053;-71
2022/01/25 08:22:55;;;;;;;;;49.00;43.25;;;;;-147.17;100.00;50405.03;5022730;28;51017;-73
2022/01/25 08:25:20;;;;;;;;;72.25;55.00;;;;;-147.17;100.00;50424.72;5020084;28;51198;-74
2022/01/25 08:27:47;;;;;;;;;64.75;51.25;;;;;-147.17;100.00;50410.94;5026959;28;51811;-73
2022/01/25 08:30:14;;;;;;;;;59.75;48.25;;;;;-147.17;100.00;50418.81;5025116;28;51050;-72
2022/01/25 08:32:39;;;;;;;;;58.50;49.00;;;;;-147.17;100.00;50412.91;5020706;28;51039;-73
2022/01/25 08:35:05;;;;;;;;;62.75;49.50;;;;;-147.17;100.00;50418.81;5015774;28;51203;-73
2022/01/25 08:37:31;;;;;;;;;73.50;58.75;;;;;-147.17;100.00;50399.13;5021965;28;51949;-73
2022/01/25 08:39:56;;;;;;;;;60.50;47.50;;;;;-147.17;100.00;50395.19;5016743;28;51086;-73
2022/01/25 08:42:22;;;;;;;;;57.75;46.25;;;;;-147.17;100.00;50385.34;5027086;28;51388;-74
2022/01/25 08:44:47;;;;;;;;;66.75;52.50;;;;;-147.17;100.00;50379.44;5026000;28;51249;-72
2022/01/25 08:47:13;;;;;;;;;68.00;55.50;;;;;-147.17;100.00;50385.34;5019049;28;50966;-74
2022/01/25 08:49:39;;;;;;;;;64.00;49.75;;;;;-147.17;100.00;50426.69;5026019;28;51072;-73
2022/01/25 08:52:06;;;;;;;;;62.25;49.00;;;;;-147.17;100.00;50371.56;5021799;28;51394;-74
2022/01/25 08:54:33;;;;;;;;;56.00;45.25;;;;;-147.17;100.00;50387.31;5032942;28;51333;-73
2022/01/25 08:56:59;;;;;;;;;67.00;50.50;;;;;-147.17;100.00;50430.63;5013603;28;51152;-74
2022/01/25 08:59:24;;;;;;;;;62.00;51.75;;;;;-147.17;100.00;50395.19;5025114;28;51138;-73
2022/01/25 09:01:50;;;;;;;;;49.00;41.75;;;;;-147.17;100.00;50426.69;5022544;28;51012;-73
2022/01/25 09:04:16;;;;;;;;;63.75;47.25;;;;;-147.17;100.00;50399.13;5031064;28;51252;-74
2022/01/25 09:06:41;;;;;;;;;55.25;45.75;;;;;-147.17;100.00;50351.88;5026979;28;51741;-73
2022/01/25 09:09:09;;;;;;;;;65.25;51.75;;;;;-147.17;100.00;50395.19;5019996;28;51051;-75
2022/01/25 09:11:39;;;;;;;;;53.75;44.25;;;;;-147.17;100.00;50387.31;5022165;28;51123;-75
2022/01/25 09:14:06;;;;;;;;;61.25;49.50;;;;;-147.17;100.00;50399.13;5024404;28;51215;-75
2022/01/25 09:16:32;;;;;;;;;58.00;49.00;;;;;-147.17;100.00;50391.25;5022647;28;51128;-74
2022/01/25 09:18:57;;;;;;;;;62.25;50.00;;;;;-147.17;100.00;50416.84;5018582;28;51058;-73
2022/01/25 09:21:23;;;;;;;;;66.00;49.75;;;;;-147.17;100.00;50391.25;5031867;28;51052;-74
2022/01/25 09:23:48;;;;;;;;;57.50;48.25;;;;;-147.17;100.00;50393.22;5026073;28;51278;-73
2022/01/25 09:26:13;;;;;;;;;56.25;48.75;;;;;-147.17;100.00;50395.19;5023349;28;51707;-72
2022/01/25 09:28:40;;;;;;;;;60.00;51.50;;;;;-147.17;100.00;50375.50;5024512;28;51182;-72
2022/01/25 09:31:05;;;;;;;;;56.50;45.00;;;;;-147.17;100.00;50395.19;5023720;28;50880;-80
2022/01/25 09:33:30;;;;;;;;;64.00;49.75;;;;;-147.17;100.00;50434.56;5030321;28;52795;-72
2022/01/25 09:35:56;;;;;;;;;66.25;52.25;;;;;-147.17;100.00;50395.19;5027983;28;51188;-70
2022/01/25 09:38:24;;;;;;;;;56.75;46.75;;;;;-147.17;100.00;50389.28;5024538;28;52234;-70
2022/01/25 09:40:50;;;;;;;;;65.75;52.75;;;;;-147.17;100.00;50412.91;5020961;28;51094;-70
2022/01/25 09:43:16;;;;;;;;;64.50;52.25;;;;;-147.17;100.00;50383.38;5024252;28;51013;-70
2022/01/25 09:45:42;;;;;;;;;65.00;50.00;;;;;-147.17;100.00;50405.03;5027729;28;53726;-71
2022/01/25 09:48:09;;;;;;;;;65.25;51.25;;;;;-147.17;100.00;50387.31;5032972;28;50861;-70
2022/01/25 09:50:37;;;;;;;;;65.25;51.25;;;;;-147.17;100.00;50381.41;5029084;28;51277;-70
2022/01/25 09:53:04;;;;;;;;;67.50;52.00;;;;;-147.17;100.00;50403.06;5021342;28;50983;-70
2022/01/25 09:55:33;;;;;;;;;71.50;54.25;;;;;-147.17;100.00;50395.19;5024767;28;51152;-70
2022/01/25 09:57:58;;;;;;;;;69.00;49.25;;;;;-147.17;100.00;50395.19;5034772;28;51021;-69
2022/01/25 10:00:29;;;;;;;;;65.25;49.00;;;;;-147.17;100.00;50414.88;5027855;28;51370;-70
2022/01/25 10:03:07;;;;;;;;;62.00;50.50;;;;;-147.17;100.00;50395.19;5026223;28;51355;-70
2022/01/25 10:05:37;;;;;;;;;61.75;47.25;;;;;-147.17;100.00;50407.00;5028879;28;51133;-70
2022/01/25 10:08:07;;;;;;;;;53.25;46.25;;;;;-147.17;100.00;50401.09;5029287;28;51252;-72
2022/01/25 10:10:40;;;;;;;;;64.50;51.75;;;;;-147.17;100.00;50359.75;5028610;28;51158;-70
2022/01/25 10:13:24;;;;;;;;;66.00;54.00;;;;;-147.17;100.00;50395.19;5021671;28;51216;-71
2022/01/25 10:16:11;;;;;;;;;60.75;49.50;;;;;-147.17;100.00;50385.34;5014172;28;50990;-71
2022/01/25 10:18:43;;;;;;;;;69.50;54.00;;;;;-147.17;100.00;50414.88;5032409;28;51463;-70
2022/01/25 10:21:22;;;;;;;;;64.00;48.75;;;;;-147.17;100.00;50412.91;5029216;28;51070;-70
2022/01/25 10:24:06;;;;;;;;;63.25;51.50;;;;;-147.17;100.00;50369.59;5023797;28;51363;-70
2022/01/25 10:26:49;;;;;;;;;63.25;52.25;;;;;-147.17;100.00;50359.75;5024742;28;52193;-71
2022/01/25 10:29:35;;;;;;;;;61.75;50.25;;;;;-147.17;100.00;50418.81;5029296;28;51162;-70
2022/01/25 10:32:10;;;;;;;;;72.25;53.00;;;;;-147.17;100.00;50397.16;5027595;28;51166;-70
2022/01/25 10:34:41;;;;;;;;;66.25;53.00;;;;;-147.17;100.00;50418.81;5033122;28;51082;-70
2022/01/25 10:37:08;;;;;;;;;69.25;53.50;;;;;-147.17;100.00;50407.00;5029759;28;51887;-71
2022/01/25 10:39:35;;;;;;;;;66.75;55.00;;;;;-147.17;100.00;50385.34;5026685;28;51190;-71
2022/01/25 10:42:21;;;;;;;;;63.75;52.00;;;;;-147.17;100.00;50446.38;5041255;28;51128;-70
2022/01/25 10:44:49;;;;;;;;;64.75;51.00;;;;;-147.17;100.00;50397.16;5027824;28;51129;-70
2022/01/25 10:47:15;;;;;;;;;65.00;50.25;;;;;-147.17;100.00;50418.81;5015765;28;53931;-71
2022/01/25 10:49:50;;;;;;;;;65.50;52.50;;;;;-147.17;100.00;50412.91;5030711;28;51232;-70
2022/01/25 10:52:26;;;;;;;;;74.00;55.00;;;;;-147.17;100.00;50407.00;5024428;28;51050;-68
2022/01/25 10:54:51;;;;;;;;;74.75;58.75;;;;;-147.17;100.00;50399.13;5034673;28;51099;-69
2022/01/25 10:57:26;;;;;;;;;63.50;51.00;;;;;-147.17;100.00;50389.28;5026195;28;51931;-69
2022/01/25 11:00:00;;;;;;;;;64.00;50.50;;;;;-147.17;100.00;50430.63;5031798;28;51283;-71
2022/01/25 11:02:27;;;;;;;;;61.50;50.50;;;;;-147.17;100.00;50422.75;5025567;28;51914;-71
2022/01/25 11:05:05;;;;;;;;;62.00;51.50;;;;;-147.17;100.00;50430.63;5031050;28;51345;-70
2022/01/25 11:07:39;;;;;;;;;68.75;57.00;;;;;-147.17;100.00;50438.50;5038757;28;51566;-70
2022/01/25 11:10:07;;;;;;;;;65.50;52.00;;;;;-147.17;100.00;50422.75;5050811;28;51369;-70
2022/01/25 11:12:37;;;;;;;;;65.75;52.25;;;;;-147.17;100.00;50428.66;5026583;28;51152;-71
2022/01/25 11:15:04;;;;;;;;;60.50;48.00;;;;;-147.17;100.00;50438.50;5033006;28;51204;-70
2022/01/25 11:17:32;;;;;;;;;65.50;49.75;;;;;-147.17;100.00;50407.00;5031957;28;52716;-70
2022/01/25 11:19:59;;;;;;;;;65.25;51.25;;;;;-147.17;100.00;50418.81;5013635;28;50960;-70
2022/01/25 11:22:26;;;;;;;;;62.50;53.00;;;;;-147.17;100.00;50450.31;5014144;28;51329;-71
2022/01/25 11:24:57;;;;;;;;;57.00;48.50;;;;;-147.17;100.00;50442.44;5026080;28;51288;-70
2022/01/25 11:27:25;;;;;;;;;59.75;49.50;;;;;-147.17;100.00;50440.47;5021123;28;55952;-71
2022/01/25 11:29:53;;;;;;;;;66.50;50.50;;;;;-147.17;100.00;50436.53;5023452;28;51129;-70
2022/01/25 11:32:24;;;;;;;;;61.75;51.75;;;;;-147.17;100.00;50407.00;5027766;28;51328;-70
2022/01/25 11:34:51;;;;;;;;;65.00;53.50;;;;;-147.17;100.00;50450.31;5013439;28;51467;-69
2022/01/25 11:37:17;;;;;;;;;62.50;48.00;;;;;-147.17;100.00;50422.75;5023077;28;51159;-70
2022/01/25 11:39:46;;;;;;;;;62.75;51.75;;;;;-147.17;100.00;50450.31;5032078;28;51213;-70
2022/01/25 11:42:14;;;;;;;;;71.00;55.25;;;;;-147.17;100.00;50460.16;5030908;28;51138;-70
2022/01/25 11:44:57;;;;;;;;;66.00;47.75;;;;;-147.17;100.00;50448.34;5017706;28;51301;-71
2022/01/25 11:47:35;;;;;;;;;66.25;52.25;;;;;-147.17;100.00;50489.69;5037716;28;52019;-72
2022/01/25 11:50:03;;;;;;;;;64.00;51.75;;;;;-147.17;100.00;50418.81;5023776;28;51299;-71
2022/01/25 11:52:30;;;;;;;;;71.50;56.50;;;;;-147.17;100.00;50444.41;5026977;28;50934;-72
2022/01/25 11:55:17;;;;;;;;;61.50;50.75;;;;;-147.17;100.00;50466.06;5017811;28;51105;-70
2022/01/25 11:57:54;;;;;;;;;65.50;53.00;;;;;-147.17;100.00;50450.31;5021353;28;51231;-71
2022/01/25 12:00:22;;;;;;;;;67.00;53.00;;;;;-147.17;100.00;50481.81;5025200;28;51075;-70
2022/01/25 12:02:50;;;;;;;;;70.00;53.00;;;;;-147.17;100.00;50477.88;5033183;28;51285;-70
2022/01/25 12:05:25;;;;;;;;;67.00;52.00;;;;;-147.17;100.00;50471.97;5033049;28;51298;-70
2022/01/25 12:08:37;;;;;;;;;69.75;53.75;;;;;-147.17;100.00;50464.09;5022799;28;52676;-71
2022/01/25 12:11:28;;;;;;;;;59.50;46.50;;;;;-147.17;100.00;50462.13;4984955;28;51186;-70
2022/01/25 12:14:23;;;;;;;;;63.75;52.00;;;;;-147.17;100.00;50470.00;5031541;28;51114;-71
2022/01/25 12:17:04;;;;;;;;;64.75;51.00;;;;;-147.17;100.00;50434.56;5031670;28;51198;-71
2022/01/25 12:19:51;;;;;;;;;65.75;53.50;;;;;-147.17;100.00;50452.28;5029528;28;51221;-70
2022/01/25 12:22:48;;;;;;;;;64.00;52.50;;;;;-147.17;100.00;50450.31;5012640;28;51000;-70
2022/01/25 12:25:37;;;;;;;;;71.75;54.50;;;;;-147.17;100.00;50466.06;5012487;28;51191;-71
2022/01/25 12:28:09;;;;;;;;;64.00;50.00;;;;;-147.17;100.00;50470.00;5018974;28;51412;-70
2022/01/25 12:30:44;;;;;;;;;50.50;40.00;;;;;-147.17;100.00;50448.34;5031048;28;52176;-70
2022/01/25 12:33:15;;;;;;;;;70.75;55.00;;;;;-147.17;100.00;50495.59;5032131;28;51132;-69
2022/01/25 12:35:43;;;;;;;;;66.25;51.00;;;;;-147.17;100.00;50462.13;5024328;28;51111;-70
2022/01/25 12:38:12;;;;;;;;;63.50;51.25;;;;;-147.17;100.00;50458.19;5012818;28;51288;-70